PWSweather.com
Personal Weather Stations
Station Observations
BLACKWELL
Blackwell, AlfretonGB DE55

BlackwellAlfretonGB DE55

Lat: 53.12076, Lon: -1.354978

Elevation: 410

Station Type: Vantage Pro

Latest ConditionsUpdated 10:20:46 PM GMT Thursday, Nov 27, 2014
Currently Today's Max Today's Min Today's Average
Temperature 43.3°F6.3°C 46.4°F8.0°C 41.4°F5.2°C 44.3°F6.8°C
Dew Point 42.6°F5.9°C 45.7°F7.6°C 40.6°F4.8°C 43.5°F6.4°C
Winds Calm Calm Calm NCalm N - Calm Calm
Wind Gusts -- 3.0 mph4.8 kmh - -
Humidity 97% 97% 95% 97%
Pressure 29.61 in1002.7 mb 29.72 in1006.4 mb 29.57 in1001.4 mb -
Precipitation - 0.08 in2.0 mm - -
Hour Temp Dew Point Humidity Winds Wind Gusts Pressure Precip Precip Rate Daily Precip Total
10:20 PM 43.3°F6.3°C 42.6°F5.9°C 97% Calm Calm -- 29.61 in1002.7 mb 0.00 in0.0 mm 0.00 in/hr0.0 mm/hr 0.08 in2.0 mm
09:20 PM 42.6°F5.9°C 41.7°F5.4°C 97% Calm Calm -- 29.61 in1002.7 mb 0.00 in0.0 mm 0.00 in/hr0.0 mm/hr 0.08 in2.0 mm
08:20 PM 41.4°F5.2°C 40.6°F4.8°C 97% Calm Calm -- 29.61 in1002.7 mb 0.00 in0.0 mm 0.00 in/hr0.0 mm/hr 0.08 in2.0 mm
07:20 PM 41.7°F5.4°C 41.0°F5.0°C 97% Calm Calm -- 29.60 in1002.4 mb 0.00 in0.0 mm 0.00 in/hr0.0 mm/hr 0.08 in2.0 mm
06:20 PM 42.6°F5.9°C 41.4°F5.2°C 95% Calm Calm -- 29.59 in1002.0 mb 0.00 in0.0 mm 0.00 in/hr0.0 mm/hr 0.08 in2.0 mm
05:20 PM 45.3°F7.4°C 44.4°F6.9°C 97% Calm Calm 2.0 mph3.2 kmh 29.59 in1002.0 mb 0.00 in0.0 mm 0.00 in/hr0.0 mm/hr 0.08 in2.0 mm
04:20 PM 45.9°F7.7°C 45.1°F7.3°C 97% Calm Calm -- 29.58 in1001.7 mb 0.01 in0.3 mm 0.00 in/hr0.0 mm/hr 0.08 in2.0 mm
03:20 PM 46.0°F7.8°C 45.3°F7.4°C 97% Calm Calm 2.0 mph3.2 kmh 29.57 in1001.4 mb 0.00 in0.0 mm 0.00 in/hr0.0 mm/hr 0.08 in2.0 mm
02:20 PM 46.0°F7.8°C 45.3°F7.4°C 97% Calm Calm -- 29.57 in1001.4 mb 0.00 in0.0 mm 0.00 in/hr0.0 mm/hr 0.07 in1.8 mm
01:20 PM 46.4°F8.0°C 45.7°F7.6°C 97% Calm Calm -- 29.57 in1001.4 mb 0.00 in0.0 mm 0.00 in/hr0.0 mm/hr 0.07 in1.8 mm
12:20 PM 46.2°F7.9°C 45.3°F7.4°C 97% Calm Calm -- 29.58 in1001.7 mb 0.00 in0.0 mm 0.00 in/hr0.0 mm/hr 0.07 in1.8 mm
11:20 AM 45.7°F7.6°C 45.0°F7.2°C 97% Calm Calm -- 29.59 in1002.0 mb 0.00 in0.0 mm 0.00 in/hr0.0 mm/hr 0.07 in1.8 mm
10:20 AM 45.3°F7.4°C 44.4°F6.9°C 97% Calm Calm -- 29.60 in1002.4 mb 0.00 in0.0 mm 0.00 in/hr0.0 mm/hr 0.07 in1.8 mm
09:20 AM 44.4°F6.9°C 43.7°F6.5°C 97% Calm Calm -- 29.61 in1002.7 mb 0.00 in0.0 mm 0.00 in/hr0.0 mm/hr 0.07 in1.8 mm
08:20 AM 44.1°F6.7°C 43.3°F6.3°C 97% Calm Calm -- 29.62 in1003.0 mb 0.00 in0.0 mm 0.00 in/hr0.0 mm/hr 0.07 in1.8 mm
07:20 AM 44.1°F6.7°C 43.2°F6.2°C 97% Calm Calm -- 29.62 in1003.0 mb 0.00 in0.0 mm 0.00 in/hr0.0 mm/hr 0.07 in1.8 mm
06:20 AM 43.9°F6.6°C 43.2°F6.2°C 97% Calm Calm -- 29.62 in1003.0 mb 0.00 in0.0 mm 0.00 in/hr0.0 mm/hr 0.07 in1.8 mm
05:20 AM 43.9°F6.6°C 43.2°F6.2°C 97% Calm Calm -- 29.64 in1003.7 mb 0.01 in0.3 mm 0.00 in/hr0.0 mm/hr 0.07 in1.8 mm
04:20 AM 44.1°F6.7°C 43.2°F6.2°C 97% Calm Calm -- 29.66 in1004.4 mb 0.01 in0.3 mm 0.00 in/hr0.0 mm/hr 0.06 in1.5 mm
03:20 AM 44.1°F6.7°C 43.2°F6.2°C 97% Calm Calm -- 29.67 in1004.7 mb 0.04 in1.0 mm 0.00 in/hr0.0 mm/hr 0.06 in1.5 mm
02:20 AM 44.1°F6.7°C 43.3°F6.3°C 97% Calm Calm 2.0 mph3.2 kmh 29.69 in1005.4 mb 0.02 in0.5 mm 0.00 in/hr0.0 mm/hr 0.02 in0.5 mm
01:20 AM 44.2°F6.8°C 43.3°F6.3°C 97% Calm Calm 2.0 mph3.2 kmh 29.71 in1006.1 mb 0.00 in0.0 mm 0.00 in/hr0.0 mm/hr 0.00 in0.0 mm
12:20 AM 44.2°F6.8°C 43.3°F6.3°C 97% Calm Calm 3.0 mph4.8 kmh 29.72 in1006.4 mb 0.00 in0.0 mm 0.00 in/hr0.0 mm/hr 0.00 in0.0 mm